sensor_id;sensor_type;location;lat;lon;timestamp;P1;durP1;ratioP1;P2;durP2;ratioP2
57726;SDS011;43568;43.180;-0.028;2022-07-19T00:00:31;3.65;;;3.30;;
57726;SDS011;43568;43.180;-0.028;2022-07-19T00:02:58;3.03;;;2.83;;
57726;SDS011;43568;43.180;-0.028;2022-07-19T00:05:24;3.58;;;3.38;;
57726;SDS011;43568;43.180;-0.028;2022-07-19T00:07:50;3.05;;;2.85;;
57726;SDS011;43568;43.180;-0.028;2022-07-19T00:10:17;4.32;;;2.72;;
57726;SDS011;43568;43.180;-0.028;2022-07-19T00:12:44;3.03;;;2.92;;
57726;SDS011;43568;43.180;-0.028;2022-07-19T00:15:11;5.05;;;3.92;;
57726;SDS011;43568;43.180;-0.028;2022-07-19T00:17:41;3.38;;;3.17;;
57726;SDS011;43568;43.180;-0.028;2022-07-19T00:20:09;4.25;;;3.85;;
57726;SDS011;43568;43.180;-0.028;2022-07-19T00:22:35;3.72;;;3.53;;
57726;SDS011;43568;43.180;-0.028;2022-07-19T00:25:02;3.75;;;3.47;;
57726;SDS011;43568;43.180;-0.028;2022-07-19T00:27:28;3.03;;;2.83;;
57726;SDS011;43568;43.180;-0.028;2022-07-19T00:29:54;2.38;;;2.28;;
57726;SDS011;43568;43.180;-0.028;2022-07-19T00:32:20;2.58;;;2.38;;
57726;SDS011;43568;43.180;-0.028;2022-07-19T00:34:46;3.38;;;3.17;;
57726;SDS011;43568;43.180;-0.028;2022-07-19T00:39:48;3.40;;;2.85;;
57726;SDS011;43568;43.180;-0.028;2022-07-19T00:42:14;3.83;;;2.40;;
57726;SDS011;43568;43.180;-0.028;2022-07-19T00:44:40;2.90;;;2.72;;
57726;SDS011;43568;43.180;-0.028;2022-07-19T00:47:06;3.63;;;2.65;;
57726;SDS011;43568;43.180;-0.028;2022-07-19T00:49:33;2.78;;;2.58;;
57726;SDS011;43568;43.180;-0.028;2022-07-19T00:51:59;3.10;;;2.90;;
57726;SDS011;43568;43.180;-0.028;2022-07-19T00:54:25;3.72;;;3.42;;
57726;SDS011;43568;43.180;-0.028;2022-07-19T00:56:51;2.67;;;2.47;;
57726;SDS011;43568;43.180;-0.028;2022-07-19T00:59:17;3.83;;;3.60;;
57726;SDS011;43568;43.180;-0.028;2022-07-19T01:01:44;3.20;;;3.00;;
57726;SDS011;43568;43.180;-0.028;2022-07-19T01:04:10;4.05;;;2.97;;
57726;SDS011;43568;43.180;-0.028;2022-07-19T01:06:37;2.38;;;2.28;;
57726;SDS011;43568;43.180;-0.028;2022-07-19T01:09:03;3.55;;;3.00;;
57726;SDS011;43568;43.180;-0.028;2022-07-19T01:11:30;3.88;;;3.50;;
57726;SDS011;43568;43.180;-0.028;2022-07-19T01:13:56;2.42;;;2.33;;
57726;SDS011;43568;43.180;-0.028;2022-07-19T01:16:22;2.50;;;2.30;;
57726;SDS011;43568;43.180;-0.028;2022-07-19T01:18:48;3.15;;;2.97;;
57726;SDS011;43568;43.180;-0.028;2022-07-19T01:21:19;2.78;;;2.63;;
57726;SDS011;43568;43.180;-0.028;2022-07-19T01:23:45;12.45;;;2.30;;
57726;SDS011;43568;43.180;-0.028;2022-07-19T01:26:11;2.58;;;2.47;;
57726;SDS011;43568;43.180;-0.028;2022-07-19T01:28:37;3.00;;;2.80;;
57726;SDS011;43568;43.180;-0.028;2022-07-19T01:31:03;2.63;;;2.47;;
57726;SDS011;43568;43.180;-0.028;2022-07-19T01:33:29;3.65;;;2.78;;
57726;SDS011;43568;43.180;-0.028;2022-07-19T01:35:55;4.78;;;3.20;;
57726;SDS011;43568;43.180;-0.028;2022-07-19T01:38:21;3.70;;;3.05;;
57726;SDS011;43568;43.180;-0.028;2022-07-19T01:40:47;2.50;;;2.40;;
57726;SDS011;43568;43.180;-0.028;2022-07-19T01:43:13;3.90;;;3.55;;
57726;SDS011;43568;43.180;-0.028;2022-07-19T01:45:39;3.33;;;3.13;;
57726;SDS011;43568;43.180;-0.028;2022-07-19T01:48:05;4.28;;;3.97;;
57726;SDS011;43568;43.180;-0.028;2022-07-19T01:50:31;4.15;;;3.30;;
57726;SDS011;43568;43.180;-0.028;2022-07-19T01:52:57;4.93;;;3.50;;
57726;SDS011;43568;43.180;-0.028;2022-07-19T01:55:23;2.15;;;2.05;;
57726;SDS011;43568;43.180;-0.028;2022-07-19T01:57:49;2.67;;;2.58;;
57726;SDS011;43568;43.180;-0.028;2022-07-19T02:00:16;2.85;;;2.75;;
57726;SDS011;43568;43.180;-0.028;2022-07-19T02:02:42;3.55;;;3.35;;
57726;SDS011;43568;43.180;-0.028;2022-07-19T02:05:08;3.22;;;2.75;;
57726;SDS011;43568;43.180;-0.028;2022-07-19T02:07:34;4.25;;;3.67;;
57726;SDS011;43568;43.180;-0.028;2022-07-19T02:10:00;3.85;;;3.55;;
57726;SDS011;43568;43.180;-0.028;2022-07-19T02:12:26;3.28;;;3.08;;
57726;SDS011;43568;43.180;-0.028;2022-07-19T02:14:52;4.60;;;3.92;;
57726;SDS011;43568;43.180;-0.028;2022-07-19T02:17:18;4.00;;;2.90;;
57726;SDS011;43568;43.180;-0.028;2022-07-19T02:19:45;2.78;;;2.58;;
57726;SDS011;43568;43.180;-0.028;2022-07-19T02:22:11;3.67;;;3.38;;
57726;SDS011;43568;43.180;-0.028;2022-07-19T02:24:37;3.20;;;2.85;;
57726;SDS011;43568;43.180;-0.028;2022-07-19T02:27:04;2.45;;;2.35;;
57726;SDS011;43568;43.180;-0.028;2022-07-19T02:29:30;2.83;;;2.63;;
57726;SDS011;43568;43.180;-0.028;2022-07-19T02:31:56;2.67;;;2.58;;
57726;SDS011;43568;43.180;-0.028;2022-07-19T02:34:22;2.25;;;2.15;;
57726;SDS011;43568;43.180;-0.028;2022-07-19T02:36:48;2.85;;;2.65;;
57726;SDS011;43568;43.180;-0.028;2022-07-19T02:39:14;2.72;;;2.55;;
57726;SDS011;43568;43.180;-0.028;2022-07-19T02:41:40;3.10;;;2.85;;
57726;SDS011;43568;43.180;-0.028;2022-07-19T02:44:06;11.20;;;3.03;;
57726;SDS011;43568;43.180;-0.028;2022-07-19T02:46:32;2.35;;;2.25;;
57726;SDS011;43568;43.180;-0.028;2022-07-19T02:48:58;2.50;;;2.33;;
57726;SDS011;43568;43.180;-0.028;2022-07-19T02:51:24;2.28;;;2.17;;
57726;SDS011;43568;43.180;-0.028;2022-07-19T02:53:50;3.45;;;3.22;;
57726;SDS011;43568;43.180;-0.028;2022-07-19T02:56:17;3.50;;;3.28;;
57726;SDS011;43568;43.180;-0.028;2022-07-19T02:58:43;2.45;;;2.35;;
57726;SDS011;43568;43.180;-0.028;2022-07-19T03:01:09;2.47;;;2.38;;
57726;SDS011;43568;43.180;-0.028;2022-07-19T03:03:35;2.25;;;2.15;;
57726;SDS011;43568;43.180;-0.028;2022-07-19T03:06:12;2.97;;;2.83;;
57726;SDS011;43568;43.180;-0.028;2022-07-19T03:08:38;2.95;;;2.75;;
57726;SDS011;43568;43.180;-0.028;2022-07-19T03:11:04;2.65;;;2.55;;
57726;SDS011;43568;43.180;-0.028;2022-07-19T03:13:30;2.55;;;2.45;;
57726;SDS011;43568;43.180;-0.028;2022-07-19T03:15:56;2.97;;;2.78;;
57726;SDS011;43568;43.180;-0.028;2022-07-19T03:18:22;2.03;;;1.92;;
57726;SDS011;43568;43.180;-0.028;2022-07-19T03:20:48;2.00;;;2.00;;
57726;SDS011;43568;43.180;-0.028;2022-07-19T03:23:15;3.13;;;2.92;;
57726;SDS011;43568;43.180;-0.028;2022-07-19T03:25:41;2.10;;;2.00;;
57726;SDS011;43568;43.180;-0.028;2022-07-19T03:28:07;3.15;;;2.97;;
57726;SDS011;43568;43.180;-0.028;2022-07-19T03:30:33;2.47;;;2.38;;
57726;SDS011;43568;43.180;-0.028;2022-07-19T03:32:59;2.85;;;2.00;;
57726;SDS011;43568;43.180;-0.028;2022-07-19T03:35:25;2.10;;;2.00;;
57726;SDS011;43568;43.180;-0.028;2022-07-19T03:37:51;3.33;;;2.25;;
57726;SDS011;43568;43.180;-0.028;2022-07-19T03:40:17;3.47;;;3.25;;
57726;SDS011;43568;43.180;-0.028;2022-07-19T03:42:44;4.15;;;3.15;;
57726;SDS011;43568;43.180;-0.028;2022-07-19T03:45:10;2.00;;;1.90;;
57726;SDS011;43568;43.180;-0.028;2022-07-19T03:47:36;2.28;;;2.17;;
57726;SDS011;43568;43.180;-0.028;2022-07-19T03:50:02;5.47;;;2.20;;
57726;SDS011;43568;43.180;-0.028;2022-07-19T03:52:28;5.88;;;2.63;;
57726;SDS011;43568;43.180;-0.028;2022-07-19T03:54:54;2.78;;;2.67;;
57726;SDS011;43568;43.180;-0.028;2022-07-19T03:57:20;3.55;;;3.35;;
57726;SDS011;43568;43.180;-0.028;2022-07-19T03:59:46;3.97;;;3.55;;
57726;SDS011;43568;43.180;-0.028;2022-07-19T04:02:12;1.67;;;1.67;;
57726;SDS011;43568;43.180;-0.028;2022-07-19T04:04:38;1.95;;;1.85;;
57726;SDS011;43568;43.180;-0.028;2022-07-19T04:07:04;2.30;;;2.10;;
57726;SDS011;43568;43.180;-0.028;2022-07-19T04:09:31;2.67;;;2.33;;
57726;SDS011;43568;43.180;-0.028;2022-07-19T04:11:57;2.33;;;2.22;;
57726;SDS011;43568;43.180;-0.028;2022-07-19T04:14:23;2.72;;;2.63;;
57726;SDS011;43568;43.180;-0.028;2022-07-19T04:16:49;4.85;;;1.92;;
57726;SDS011;43568;43.180;-0.028;2022-07-19T04:19:15;3.53;;;3.08;;
57726;SDS011;43568;43.180;-0.028;2022-07-19T04:21:41;2.70;;;2.53;;
57726;SDS011;43568;43.180;-0.028;2022-07-19T04:24:07;2.35;;;2.05;;
57726;SDS011;43568;43.180;-0.028;2022-07-19T04:26:33;2.45;;;2.35;;
57726;SDS011;43568;43.180;-0.028;2022-07-19T04:28:59;4.05;;;3.28;;
57726;SDS011;43568;43.180;-0.028;2022-07-19T04:31:25;2.47;;;2.38;;
57726;SDS011;43568;43.180;-0.028;2022-07-19T04:33:51;2.08;;;2.00;;
57726;SDS011;43568;43.180;-0.028;2022-07-19T04:36:17;2.47;;;2.38;;
57726;SDS011;43568;43.180;-0.028;2022-07-19T04:38:43;1.90;;;1.80;;
57726;SDS011;43568;43.180;-0.028;2022-07-19T04:41:09;2.50;;;2.38;;
57726;SDS011;43568;43.180;-0.028;2022-07-19T04:43:35;2.17;;;2.08;;
57726;SDS011;43568;43.180;-0.028;2022-07-19T04:46:01;2.10;;;2.00;;
57726;SDS011;43568;43.180;-0.028;2022-07-19T04:48:28;2.45;;;2.35;;
57726;SDS011;43568;43.180;-0.028;2022-07-19T04:50:54;1.90;;;1.80;;
57726;SDS011;43568;43.180;-0.028;2022-07-19T04:53:21;2.40;;;2.30;;
57726;SDS011;43568;43.180;-0.028;2022-07-19T04:55:47;1.95;;;1.85;;
57726;SDS011;43568;43.180;-0.028;2022-07-19T04:58:13;2.72;;;2.58;;
57726;SDS011;43568;43.180;-0.028;2022-07-19T05:00:39;2.78;;;2.67;;
57726;SDS011;43568;43.180;-0.028;2022-07-19T05:03:05;2.33;;;2.22;;
57726;SDS011;43568;43.180;-0.028;2022-07-19T05:05:31;2.92;;;2.72;;
57726;SDS011;43568;43.180;-0.028;2022-07-19T05:07:57;3.17;;;2.97;;
57726;SDS011;43568;43.180;-0.028;2022-07-19T05:10:23;2.88;;;2.72;;
57726;SDS011;43568;43.180;-0.028;2022-07-19T05:12:49;3.25;;;2.95;;
57726;SDS011;43568;43.180;-0.028;2022-07-19T05:15:15;8.13;;;2.30;;
57726;SDS011;43568;43.180;-0.028;2022-07-19T05:17:41;2.10;;;2.00;;
57726;SDS011;43568;43.180;-0.028;2022-07-19T05:20:08;5.38;;;3.90;;
57726;SDS011;43568;43.180;-0.028;2022-07-19T05:22:35;2.70;;;2.60;;
57726;SDS011;43568;43.180;-0.028;2022-07-19T05:25:01;2.00;;;1.90;;
57726;SDS011;43568;43.180;-0.028;2022-07-19T05:27:27;4.22;;;2.78;;
57726;SDS011;43568;43.180;-0.028;2022-07-19T05:29:53;2.30;;;2.20;;
57726;SDS011;43568;43.180;-0.028;2022-07-19T05:32:19;6.40;;;3.15;;
57726;SDS011;43568;43.180;-0.028;2022-07-19T05:34:45;3.20;;;3.00;;
57726;SDS011;43568;43.180;-0.028;2022-07-19T05:37:11;2.88;;;2.67;;
57726;SDS011;43568;43.180;-0.028;2022-07-19T05:39:37;3.00;;;2.75;;
57726;SDS011;43568;43.180;-0.028;2022-07-19T05:42:03;2.03;;;1.95;;
57726;SDS011;43568;43.180;-0.028;2022-07-19T05:44:29;2.83;;;2.67;;
57726;SDS011;43568;43.180;-0.028;2022-07-19T05:46:55;2.22;;;2.13;;
57726;SDS011;43568;43.180;-0.028;2022-07-19T05:49:21;2.67;;;2.58;;
57726;SDS011;43568;43.180;-0.028;2022-07-19T05:51:47;2.38;;;2.28;;
57726;SDS011;43568;43.180;-0.028;2022-07-19T05:54:13;1.73;;;1.73;;
57726;SDS011;43568;43.180;-0.028;2022-07-19T05:56:39;2.85;;;2.60;;
57726;SDS011;43568;43.180;-0.028;2022-07-19T05:59:05;4.55;;;2.33;;
57726;SDS011;43568;43.180;-0.028;2022-07-19T06:01:31;3.20;;;3.00;;
57726;SDS011;43568;43.180;-0.028;2022-07-19T06:03:58;6.43;;;3.88;;
57726;SDS011;43568;43.180;-0.028;2022-07-19T06:06:26;2.97;;;2.83;;
57726;SDS011;43568;43.180;-0.028;2022-07-19T06:08:52;2.70;;;2.60;;
57726;SDS011;43568;43.180;-0.028;2022-07-19T06:11:18;2.70;;;2.60;;
57726;SDS011;43568;43.180;-0.028;2022-07-19T06:13:45;2.80;;;2.70;;
57726;SDS011;43568;43.180;-0.028;2022-07-19T06:16:11;2.75;;;2.65;;
57726;SDS011;43568;43.180;-0.028;2022-07-19T06:18:38;2.42;;;2.33;;
57726;SDS011;43568;43.180;-0.028;2022-07-19T06:21:04;3.10;;;2.95;;
57726;SDS011;43568;43.180;-0.028;2022-07-19T06:25:57;3.05;;;2.90;;
57726;SDS011;43568;43.180;-0.028;2022-07-19T06:28:24;1.88;;;1.80;;
57726;SDS011;43568;43.180;-0.028;2022-07-19T06:30:50;2.13;;;2.05;;
57726;SDS011;43568;43.180;-0.028;2022-07-19T06:33:16;2.63;;;2.42;;
57726;SDS011;43568;43.180;-0.028;2022-07-19T06:35:42;2.72;;;2.63;;
57726;SDS011;43568;43.180;-0.028;2022-07-19T06:38:08;1.90;;;1.80;;
57726;SDS011;43568;43.180;-0.028;2022-07-19T06:40:34;2.35;;;2.25;;
57726;SDS011;43568;43.180;-0.028;2022-07-19T06:43:00;2.88;;;2.78;;
57726;SDS011;43568;43.180;-0.028;2022-07-19T06:45:26;2.20;;;2.15;;
57726;SDS011;43568;43.180;-0.028;2022-07-19T06:47:52;2.40;;;2.30;;
57726;SDS011;43568;43.180;-0.028;2022-07-19T06:50:19;2.30;;;2.20;;
57726;SDS011;43568;43.180;-0.028;2022-07-19T06:52:45;2.00;;;1.90;;
57726;SDS011;43568;43.180;-0.028;2022-07-19T06:55:11;2.53;;;2.42;;
57726;SDS011;43568;43.180;-0.028;2022-07-19T06:57:37;2.80;;;2.63;;
57726;SDS011;43568;43.180;-0.028;2022-07-19T07:00:04;2.67;;;2.50;;
57726;SDS011;43568;43.180;-0.028;2022-07-19T07:02:32;2.45;;;2.35;;
57726;SDS011;43568;43.180;-0.028;2022-07-19T07:04:58;2.05;;;1.95;;
57726;SDS011;43568;43.180;-0.028;2022-07-19T07:07:24;2.33;;;2.22;;
57726;SDS011;43568;43.180;-0.028;2022-07-19T07:09:50;1.80;;;1.80;;
57726;SDS011;43568;43.180;-0.028;2022-07-19T07:12:16;2.05;;;1.95;;
57726;SDS011;43568;43.180;-0.028;2022-07-19T07:14:42;2.13;;;1.92;;
57726;SDS011;43568;43.180;-0.028;2022-07-19T07:17:08;3.80;;;2.10;;
57726;SDS011;43568;43.180;-0.028;2022-07-19T07:19:34;2.97;;;2.15;;
57726;SDS011;43568;43.180;-0.028;2022-07-19T07:22:00;2.45;;;2.30;;
57726;SDS011;43568;43.180;-0.028;2022-07-19T07:24:27;1.70;;;1.70;;
57726;SDS011;43568;43.180;-0.028;2022-07-19T07:26:53;2.63;;;2.47;;
57726;SDS011;43568;43.180;-0.028;2022-07-19T07:29:19;2.20;;;2.10;;
57726;SDS011;43568;43.180;-0.028;2022-07-19T07:31:45;2.00;;;1.90;;
57726;SDS011;43568;43.180;-0.028;2022-07-19T07:34:11;1.90;;;1.80;;
57726;SDS011;43568;43.180;-0.028;2022-07-19T07:36:37;1.77;;;1.77;;
57726;SDS011;43568;43.180;-0.028;2022-07-19T07:39:03;2.75;;;2.55;;
57726;SDS011;43568;43.180;-0.028;2022-07-19T07:41:29;2.28;;;2.17;;
57726;SDS011;43568;43.180;-0.028;2022-07-19T07:43:55;1.83;;;1.83;;
57726;SDS011;43568;43.180;-0.028;2022-07-19T07:46:21;2.05;;;1.95;;
57726;SDS011;43568;43.180;-0.028;2022-07-19T07:48:48;1.95;;;1.85;;
57726;SDS011;43568;43.180;-0.028;2022-07-19T07:51:13;2.10;;;2.00;;
57726;SDS011;43568;43.180;-0.028;2022-07-19T07:53:39;2.33;;;2.20;;
57726;SDS011;43568;43.180;-0.028;2022-07-19T07:56:06;2.25;;;2.15;;
57726;SDS011;43568;43.180;-0.028;2022-07-19T07:58:32;1.70;;;1.70;;
57726;SDS011;43568;43.180;-0.028;2022-07-19T08:00:58;1.60;;;1.60;;
57726;SDS011;43568;43.180;-0.028;2022-07-19T08:03:24;2.33;;;2.22;;
57726;SDS011;43568;43.180;-0.028;2022-07-19T08:05:50;2.15;;;2.05;;
57726;SDS011;43568;43.180;-0.028;2022-07-19T08:08:16;1.50;;;1.50;;
57726;SDS011;43568;43.180;-0.028;2022-07-19T08:10:42;3.65;;;2.17;;
57726;SDS011;43568;43.180;-0.028;2022-07-19T08:13:08;2.42;;;2.33;;
57726;SDS011;43568;43.180;-0.028;2022-07-19T08:15:37;2.15;;;2.05;;
57726;SDS011;43568;43.180;-0.028;2022-07-19T08:18:04;1.95;;;1.85;;
57726;SDS011;43568;43.180;-0.028;2022-07-19T08:20:30;1.60;;;1.60;;
57726;SDS011;43568;43.180;-0.028;2022-07-19T08:22:56;2.22;;;2.10;;
57726;SDS011;43568;43.180;-0.028;2022-07-19T08:25:22;2.22;;;2.13;;
57726;SDS011;43568;43.180;-0.028;2022-07-19T08:27:48;2.47;;;2.30;;
57726;SDS011;43568;43.180;-0.028;2022-07-19T08:30:14;1.60;;;1.50;;
57726;SDS011;43568;43.180;-0.028;2022-07-19T08:32:40;2.42;;;2.28;;
57726;SDS011;43568;43.180;-0.028;2022-07-19T08:35:07;2.08;;;1.98;;
57726;SDS011;43568;43.180;-0.028;2022-07-19T08:37:33;1.67;;;1.58;;
57726;SDS011;43568;43.180;-0.028;2022-07-19T08:39:59;1.50;;;1.50;;
57726;SDS011;43568;43.180;-0.028;2022-07-19T08:42:26;1.27;;;1.27;;
57726;SDS011;43568;43.180;-0.028;2022-07-19T08:44:53;1.90;;;1.80;;
57726;SDS011;43568;43.180;-0.028;2022-07-19T08:47:20;2.10;;;2.00;;
57726;SDS011;43568;43.180;-0.028;2022-07-19T08:49:46;1.93;;;1.83;;
57726;SDS011;43568;43.180;-0.028;2022-07-19T08:52:12;1.33;;;1.33;;
57726;SDS011;43568;43.180;-0.028;2022-07-19T08:54:39;3.08;;;1.63;;
57726;SDS011;43568;43.180;-0.028;2022-07-19T08:57:05;1.53;;;1.53;;
57726;SDS011;43568;43.180;-0.028;2022-07-19T08:59:50;1.60;;;1.60;;
57726;SDS011;43568;43.180;-0.028;2022-07-19T09:02:16;1.52;;;1.52;;
57726;SDS011;43568;43.180;-0.028;2022-07-19T09:04:42;1.33;;;1.33;;
57726;SDS011;43568;43.180;-0.028;2022-07-19T09:07:09;2.20;;;2.10;;
57726;SDS011;43568;43.180;-0.028;2022-07-19T09:09:35;2.25;;;2.15;;
57726;SDS011;43568;43.180;-0.028;2022-07-19T09:12:04;2.00;;;1.90;;
57726;SDS011;43568;43.180;-0.028;2022-07-19T09:14:32;4.13;;;1.97;;
57726;SDS011;43568;43.180;-0.028;2022-07-19T09:17:02;1.40;;;1.40;;
57726;SDS011;43568;43.180;-0.028;2022-07-19T09:19:32;2.35;;;2.10;;
57726;SDS011;43568;43.180;-0.028;2022-07-19T09:22:00;1.50;;;1.50;;
57726;SDS011;43568;43.180;-0.028;2022-07-19T09:24:27;1.75;;;1.65;;
57726;SDS011;43568;43.180;-0.028;2022-07-19T09:26:54;1.57;;;1.57;;
57726;SDS011;43568;43.180;-0.028;2022-07-19T09:29:20;1.67;;;1.67;;
57726;SDS011;43568;43.180;-0.028;2022-07-19T09:31:59;2.42;;;2.10;;
57726;SDS011;43568;43.180;-0.028;2022-07-19T09:34:29;9.48;;;1.73;;
57726;SDS011;43568;43.180;-0.028;2022-07-19T09:39:41;1.90;;;1.80;;
57726;SDS011;43568;43.180;-0.028;2022-07-19T09:42:10;2.17;;;2.00;;
57726;SDS011;43568;43.180;-0.028;2022-07-19T09:44:36;2.30;;;2.20;;
57726;SDS011;43568;43.180;-0.028;2022-07-19T09:47:02;1.65;;;1.65;;
57726;SDS011;43568;43.180;-0.028;2022-07-19T09:49:28;1.55;;;1.55;;
57726;SDS011;43568;43.180;-0.028;2022-07-19T09:51:55;3.00;;;2.80;;
57726;SDS011;43568;43.180;-0.028;2022-07-19T09:54:22;2.47;;;2.38;;
57726;SDS011;43568;43.180;-0.028;2022-07-19T09:56:48;1.30;;;1.30;;
57726;SDS011;43568;43.180;-0.028;2022-07-19T09:59:15;2.35;;;2.25;;
57726;SDS011;43568;43.180;-0.028;2022-07-19T10:01:42;1.73;;;1.73;;
57726;SDS011;43568;43.180;-0.028;2022-07-19T10:04:08;1.90;;;1.90;;
57726;SDS011;43568;43.180;-0.028;2022-07-19T10:06:35;1.95;;;1.88;;
57726;SDS011;43568;43.180;-0.028;2022-07-19T10:09:02;2.42;;;2.33;;
57726;SDS011;43568;43.180;-0.028;2022-07-19T10:11:29;1.50;;;1.50;;
57726;SDS011;43568;43.180;-0.028;2022-07-19T10:13:55;2.43;;;2.33;;
57726;SDS011;43568;43.180;-0.028;2022-07-19T10:16:24;1.90;;;1.80;;
57726;SDS011;43568;43.180;-0.028;2022-07-19T10:18:53;1.65;;;1.55;;
57726;SDS011;43568;43.180;-0.028;2022-07-19T10:21:20;2.55;;;2.45;;
57726;SDS011;43568;43.180;-0.028;2022-07-19T10:23:50;2.08;;;1.60;;
57726;SDS011;43568;43.180;-0.028;2022-07-19T10:26:37;1.58;;;1.55;;
57726;SDS011;43568;43.180;-0.028;2022-07-19T10:29:14;1.50;;;1.50;;
57726;SDS011;43568;43.180;-0.028;2022-07-19T10:31:41;1.80;;;1.70;;
57726;SDS011;43568;43.180;-0.028;2022-07-19T10:34:20;2.00;;;1.90;;
57726;SDS011;43568;43.180;-0.028;2022-07-19T10:36:47;1.88;;;1.80;;
57726;SDS011;43568;43.180;-0.028;2022-07-19T10:44:31;1.73;;;1.65;;
57726;SDS011;43568;43.180;-0.028;2022-07-19T10:46:57;2.13;;;2.05;;
57726;SDS011;43568;43.180;-0.028;2022-07-19T10:49:42;2.15;;;1.98;;
57726;SDS011;43568;43.180;-0.028;2022-07-19T10:52:44;1.98;;;1.88;;
57726;SDS011;43568;43.180;-0.028;2022-07-19T10:58:07;1.88;;;1.83;;
57726;SDS011;43568;43.180;-0.028;2022-07-19T11:00:46;1.65;;;1.65;;
57726;SDS011;43568;43.180;-0.028;2022-07-19T11:08:13;1.70;;;1.70;;
57726;SDS011;43568;43.180;-0.028;2022-07-19T11:10:39;1.83;;;1.73;;
57726;SDS011;43568;43.180;-0.028;2022-07-19T11:13:05;1.65;;;1.65;;
57726;SDS011;43568;43.180;-0.028;2022-07-19T11:15:32;1.60;;;1.60;;
57726;SDS011;43568;43.180;-0.028;2022-07-19T11:17:59;4.60;;;2.08;;
57726;SDS011;43568;43.180;-0.028;2022-07-19T11:20:26;1.67;;;1.67;;
57726;SDS011;43568;43.180;-0.028;2022-07-19T11:22:53;2.05;;;1.45;;
57726;SDS011;43568;43.180;-0.028;2022-07-19T11:25:38;1.38;;;1.38;;
57726;SDS011;43568;43.180;-0.028;2022-07-19T11:28:04;1.63;;;1.60;;
57726;SDS011;43568;43.180;-0.028;2022-07-19T11:30:31;1.50;;;1.50;;
57726;SDS011;43568;43.180;-0.028;2022-07-19T11:32:58;1.95;;;1.92;;
57726;SDS011;43568;43.180;-0.028;2022-07-19T11:35:25;1.95;;;1.92;;
57726;SDS011;43568;43.180;-0.028;2022-07-19T11:37:52;1.58;;;1.58;;
57726;SDS011;43568;43.180;-0.028;2022-07-19T11:40:18;2.03;;;1.92;;
57726;SDS011;43568;43.180;-0.028;2022-07-19T11:42:46;1.95;;;1.88;;
57726;SDS011;43568;43.180;-0.028;2022-07-19T11:45:13;1.42;;;1.42;;
57726;SDS011;43568;43.180;-0.028;2022-07-19T11:47:40;1.95;;;1.95;;
57726;SDS011;43568;43.180;-0.028;2022-07-19T11:50:07;1.80;;;1.77;;
57726;SDS011;43568;43.180;-0.028;2022-07-19T11:55:08;1.58;;;1.48;;
57726;SDS011;43568;43.180;-0.028;2022-07-19T11:57:35;1.48;;;1.48;;
57726;SDS011;43568;43.180;-0.028;2022-07-19T12:00:01;1.70;;;1.70;;
57726;SDS011;43568;43.180;-0.028;2022-07-19T12:02:27;1.77;;;1.75;;
57726;SDS011;43568;43.180;-0.028;2022-07-19T12:04:53;1.40;;;1.40;;
57726;SDS011;43568;43.180;-0.028;2022-07-19T12:07:19;1.30;;;1.30;;
57726;SDS011;43568;43.180;-0.028;2022-07-19T12:09:45;1.50;;;1.50;;
57726;SDS011;43568;43.180;-0.028;2022-07-19T12:12:15;1.65;;;1.55;;
57726;SDS011;43568;43.180;-0.028;2022-07-19T12:14:42;1.45;;;1.35;;
57726;SDS011;43568;43.180;-0.028;2022-07-19T12:19:34;2.25;;;2.03;;
57726;SDS011;43568;43.180;-0.028;2022-07-19T12:22:01;2.25;;;2.15;;
57726;SDS011;43568;43.180;-0.028;2022-07-19T12:24:27;1.42;;;1.42;;
57726;SDS011;43568;43.180;-0.028;2022-07-19T12:26:57;2.22;;;2.03;;
57726;SDS011;43568;43.180;-0.028;2022-07-19T12:31:51;2.40;;;2.30;;
57726;SDS011;43568;43.180;-0.028;2022-07-19T12:34:17;1.73;;;1.67;;
57726;SDS011;43568;43.180;-0.028;2022-07-19T12:36:44;2.27;;;2.07;;
57726;SDS011;43568;43.180;-0.028;2022-07-19T12:39:20;1.60;;;1.57;;
57726;SDS011;43568;43.180;-0.028;2022-07-19T12:41:59;1.90;;;1.83;;
57726;SDS011;43568;43.180;-0.028;2022-07-19T12:44:26;1.42;;;1.42;;
57726;SDS011;43568;43.180;-0.028;2022-07-19T12:46:52;2.45;;;2.17;;
57726;SDS011;43568;43.180;-0.028;2022-07-19T12:49:18;1.20;;;1.20;;
57726;SDS011;43568;43.180;-0.028;2022-07-19T12:51:44;1.27;;;1.27;;
57726;SDS011;43568;43.180;-0.028;2022-07-19T12:54:11;1.15;;;1.15;;
57726;SDS011;43568;43.180;-0.028;2022-07-19T12:56:37;1.30;;;1.20;;
57726;SDS011;43568;43.180;-0.028;2022-07-19T12:59:03;1.10;;;1.10;;
57726;SDS011;43568;43.180;-0.028;2022-07-19T13:01:48;1.70;;;1.60;;
57726;SDS011;43568;43.180;-0.028;2022-07-19T13:04:14;1.33;;;1.33;;
57726;SDS011;43568;43.180;-0.028;2022-07-19T13:06:40;1.42;;;1.38;;
57726;SDS011;43568;43.180;-0.028;2022-07-19T13:09:06;1.20;;;1.20;;
57726;SDS011;43568;43.180;-0.028;2022-07-19T13:11:34;1.35;;;1.35;;
57726;SDS011;43568;43.180;-0.028;2022-07-19T13:14:00;1.42;;;1.42;;
57726;SDS011;43568;43.180;-0.028;2022-07-19T13:16:26;1.67;;;1.67;;
57726;SDS011;43568;43.180;-0.028;2022-07-19T13:18:52;1.20;;;1.20;;
57726;SDS011;43568;43.180;-0.028;2022-07-19T13:21:19;1.42;;;1.35;;
57726;SDS011;43568;43.180;-0.028;2022-07-19T13:23:46;1.67;;;1.58;;
57726;SDS011;43568;43.180;-0.028;2022-07-19T13:26:12;1.33;;;1.33;;
57726;SDS011;43568;43.180;-0.028;2022-07-19T13:28:38;1.00;;;1.00;;
57726;SDS011;43568;43.180;-0.028;2022-07-19T13:31:05;1.45;;;1.45;;
57726;SDS011;43568;43.180;-0.028;2022-07-19T13:33:31;1.10;;;1.10;;
57726;SDS011;43568;43.180;-0.028;2022-07-19T13:35:57;1.17;;;1.15;;
57726;SDS011;43568;43.180;-0.028;2022-07-19T13:38:23;1.10;;;1.10;;
57726;SDS011;43568;43.180;-0.028;2022-07-19T13:40:49;1.52;;;1.42;;
57726;SDS011;43568;43.180;-0.028;2022-07-19T13:43:15;1.48;;;1.42;;
57726;SDS011;43568;43.180;-0.028;2022-07-19T13:45:41;0.90;;;0.90;;
57726;SDS011;43568;43.180;-0.028;2022-07-19T13:48:07;2.80;;;1.85;;
57726;SDS011;43568;43.180;-0.028;2022-07-19T13:50:33;1.10;;;1.10;;
57726;SDS011;43568;43.180;-0.028;2022-07-19T13:52:59;1.20;;;1.17;;
57726;SDS011;43568;43.180;-0.028;2022-07-19T13:57:52;1.50;;;1.40;;
57726;SDS011;43568;43.180;-0.028;2022-07-19T14:00:18;2.00;;;1.58;;
57726;SDS011;43568;43.180;-0.028;2022-07-19T14:02:45;1.88;;;1.77;;
57726;SDS011;43568;43.180;-0.028;2022-07-19T14:05:13;1.63;;;1.52;;
57726;SDS011;43568;43.180;-0.028;2022-07-19T14:07:39;1.00;;;1.00;;
57726;SDS011;43568;43.180;-0.028;2022-07-19T14:10:06;1.10;;;1.10;;
57726;SDS011;43568;43.180;-0.028;2022-07-19T14:12:32;1.38;;;0.98;;
57726;SDS011;43568;43.180;-0.028;2022-07-19T14:14:58;1.73;;;1.65;;
57726;SDS011;43568;43.180;-0.028;2022-07-19T14:17:24;1.98;;;1.88;;
57726;SDS011;43568;43.180;-0.028;2022-07-19T14:19:50;2.03;;;1.92;;
57726;SDS011;43568;43.180;-0.028;2022-07-19T14:22:16;1.05;;;1.05;;
57726;SDS011;43568;43.180;-0.028;2022-07-19T14:24:43;0.85;;;0.85;;
57726;SDS011;43568;43.180;-0.028;2022-07-19T14:27:09;0.98;;;0.98;;
57726;SDS011;43568;43.180;-0.028;2022-07-19T14:29:35;1.50;;;1.48;;
57726;SDS011;43568;43.180;-0.028;2022-07-19T14:32:01;0.82;;;0.82;;
57726;SDS011;43568;43.180;-0.028;2022-07-19T14:34:27;2.72;;;1.77;;
57726;SDS011;43568;43.180;-0.028;2022-07-19T14:36:53;0.90;;;0.90;;
57726;SDS011;43568;43.180;-0.028;2022-07-19T14:39:19;1.20;;;1.13;;
57726;SDS011;43568;43.180;-0.028;2022-07-19T14:41:45;1.38;;;1.27;;
57726;SDS011;43568;43.180;-0.028;2022-07-19T14:44:11;1.23;;;1.23;;
57726;SDS011;43568;43.180;-0.028;2022-07-19T14:46:37;0.95;;;0.95;;
57726;SDS011;43568;43.180;-0.028;2022-07-19T14:49:03;0.90;;;0.90;;
57726;SDS011;43568;43.180;-0.028;2022-07-19T14:51:29;1.50;;;1.20;;
57726;SDS011;43568;43.180;-0.028;2022-07-19T14:53:55;1.50;;;1.40;;
57726;SDS011;43568;43.180;-0.028;2022-07-19T14:56:21;5.85;;;1.65;;
57726;SDS011;43568;43.180;-0.028;2022-07-19T14:58:47;0.93;;;0.93;;
57726;SDS011;43568;43.180;-0.028;2022-07-19T15:01:13;1.00;;;1.00;;